Dahlonega, GA (30533)

7:12 PM EST on December 28, 2014 (GMT -0500)
Nimblewell | Change Station
CLOSE
Current Station
Personal Weather Station
Location: Dahlonega, GA
Elevation: 1706 ft
Nearby Weather Stations
Active Advisory: Areal Flood Watch

Elev 1706 ft 34.54 °N, 84.17 °W | Updated 9 seconds ago

Overcast
Overcast
55.5 °F
Feels Like 55.5 °F
N
2.3
Wind Variable Wind from South
Gusts 2.3 mph

Today
High -- | Low -- °F
--% Chance of Precip.
Yesterday
High -- | Low -- °F
Precip. -- in
7:41 AM 5:33 PM
First Quarter, 53% visible
Pressure 30.08 in
Visibility 10.0 miles
Clouds Overcast 800 ft
Dew Point 54 °F
Humidity 96%
Rainfall 0.79 in
Snow Depth Not available.
UV 0.0 out of 12
Pollen .30 out of 12
Air Quality Not available.
Flu Activity Not available.
SPECI KGVL 290004Z AUTO 27006KT 10SM OVC008 13/12 A3008 RMK AO2 T01330122

More Conditions Fewer Conditions

Pressure 30.08 in
Visibility 10.0 miles
Clouds Overcast 800 ft
Dew Point 54 °F
Humidity 96%
Rainfall 0.79 in
Snow Depth Not available.
UV 0.0 out of 12
Pollen .30 out of 12
Air Quality Not available.
Flu Activity Not available.
SPECI KGVL 290004Z AUTO 27006KT 10SM OVC008 13/12 A3008 RMK AO2 T01330122

More Conditions Fewer Conditions

10-Day Weather Forecast

Almanac

Astronomy

Dec. 28, 2014 Rise Set
Actual Time
Civil Twilight
Nautical Twilight
Astronomical Twilight
Moon
Length of Visible Light
Length of Day
Tomorrow will be .
, % of the Moon is Illuminated

Today's Extremes

State Highs State Lows

Community

WunderPhotos

Upload Photos

1,781,468 photos uploaded!

WunderBlogs® & News

Nearby

Air Quality

  Air Quality AQ Index Pollutant
Not available.

Snow Depth

Station Depth Elevation

Earthquake Activity

City Distance Mag. Time & Date
Minimum magnitude displayed is 2.5.

Coastal Water Temperatures

Place Temperature

Nearby Weather Stations